sensor_id;sensor_type;location;lat;lon;timestamp;P1;durP1;ratioP1;P2;durP2;ratioP2
59109;SDS011;44895;47.438;18.978;2022-12-18T00:03:02;33.10;;;18.30;;
59109;SDS011;44895;47.438;18.978;2022-12-18T00:06:06;30.80;;;16.80;;
59109;SDS011;44895;47.438;18.978;2022-12-18T00:09:10;34.75;;;19.42;;
59109;SDS011;44895;47.438;18.978;2022-12-18T00:12:14;28.20;;;18.13;;
59109;SDS011;44895;47.438;18.978;2022-12-18T00:15:18;36.47;;;18.60;;
59109;SDS011;44895;47.438;18.978;2022-12-18T00:18:22;40.35;;;20.13;;
59109;SDS011;44895;47.438;18.978;2022-12-18T00:21:27;38.22;;;18.58;;
59109;SDS011;44895;47.438;18.978;2022-12-18T00:24:33;33.72;;;18.10;;
59109;SDS011;44895;47.438;18.978;2022-12-18T00:27:37;33.67;;;16.38;;
59109;SDS011;44895;47.438;18.978;2022-12-18T00:30:41;31.15;;;16.30;;
59109;SDS011;44895;47.438;18.978;2022-12-18T00:33:45;41.28;;;18.48;;
59109;SDS011;44895;47.438;18.978;2022-12-18T00:36:49;39.47;;;19.58;;
59109;SDS011;44895;47.438;18.978;2022-12-18T00:39:53;32.58;;;16.63;;
59109;SDS011;44895;47.438;18.978;2022-12-18T00:42:57;43.92;;;20.23;;
59109;SDS011;44895;47.438;18.978;2022-12-18T00:46:01;39.42;;;21.30;;
59109;SDS011;44895;47.438;18.978;2022-12-18T00:49:06;32.53;;;18.23;;
59109;SDS011;44895;47.438;18.978;2022-12-18T00:52:10;35.20;;;19.88;;
59109;SDS011;44895;47.438;18.978;2022-12-18T00:55:15;33.92;;;18.63;;
59109;SDS011;44895;47.438;18.978;2022-12-18T00:58:19;38.00;;;19.85;;
59109;SDS011;44895;47.438;18.978;2022-12-18T01:01:23;37.80;;;20.50;;
59109;SDS011;44895;47.438;18.978;2022-12-18T01:04:27;33.10;;;16.13;;
59109;SDS011;44895;47.438;18.978;2022-12-18T01:07:32;39.38;;;16.38;;
59109;SDS011;44895;47.438;18.978;2022-12-18T01:10:36;33.30;;;17.75;;
59109;SDS011;44895;47.438;18.978;2022-12-18T01:13:40;34.05;;;18.80;;
59109;SDS011;44895;47.438;18.978;2022-12-18T01:16:45;26.60;;;18.27;;
59109;SDS011;44895;47.438;18.978;2022-12-18T01:19:49;45.97;;;17.63;;
59109;SDS011;44895;47.438;18.978;2022-12-18T01:22:53;39.90;;;19.92;;
59109;SDS011;44895;47.438;18.978;2022-12-18T01:25:57;31.67;;;16.30;;
59109;SDS011;44895;47.438;18.978;2022-12-18T01:29:02;36.95;;;17.15;;
59109;SDS011;44895;47.438;18.978;2022-12-18T01:32:06;35.80;;;17.95;;
59109;SDS011;44895;47.438;18.978;2022-12-18T01:35:09;32.47;;;15.23;;
59109;SDS011;44895;47.438;18.978;2022-12-18T01:38:14;37.55;;;19.23;;
59109;SDS011;44895;47.438;18.978;2022-12-18T01:41:19;32.70;;;17.40;;
59109;SDS011;44895;47.438;18.978;2022-12-18T01:48:01;31.70;;;15.73;;
59109;SDS011;44895;47.438;18.978;2022-12-18T01:51:09;40.80;;;20.08;;
59109;SDS011;44895;47.438;18.978;2022-12-18T01:54:14;34.45;;;17.08;;
59109;SDS011;44895;47.438;18.978;2022-12-18T01:57:18;33.53;;;16.77;;
59109;SDS011;44895;47.438;18.978;2022-12-18T02:00:23;33.45;;;15.77;;
59109;SDS011;44895;47.438;18.978;2022-12-18T02:03:28;40.80;;;20.85;;
59109;SDS011;44895;47.438;18.978;2022-12-18T02:06:37;35.08;;;16.88;;
59109;SDS011;44895;47.438;18.978;2022-12-18T02:13:13;32.42;;;16.23;;
59109;SDS011;44895;47.438;18.978;2022-12-18T02:27:00;34.95;;;18.67;;
59109;SDS011;44895;47.438;18.978;2022-12-18T02:30:08;38.28;;;19.63;;
59109;SDS011;44895;47.438;18.978;2022-12-18T02:33:15;39.85;;;19.88;;
59109;SDS011;44895;47.438;18.978;2022-12-18T02:36:20;32.25;;;17.73;;
59109;SDS011;44895;47.438;18.978;2022-12-18T02:39:27;41.65;;;18.63;;
59109;SDS011;44895;47.438;18.978;2022-12-18T02:42:39;36.25;;;18.88;;
59109;SDS011;44895;47.438;18.978;2022-12-18T02:45:56;34.92;;;19.38;;
59109;SDS011;44895;47.438;18.978;2022-12-18T02:49:25;31.35;;;16.88;;
59109;SDS011;44895;47.438;18.978;2022-12-18T02:56:33;40.85;;;18.75;;
59109;SDS011;44895;47.438;18.978;2022-12-18T02:59:53;38.90;;;19.23;;
59109;SDS011;44895;47.438;18.978;2022-12-18T03:03:16;46.67;;;21.45;;
59109;SDS011;44895;47.438;18.978;2022-12-18T03:06:32;39.33;;;18.50;;
59109;SDS011;44895;47.438;18.978;2022-12-18T03:09:44;33.90;;;18.58;;
59109;SDS011;44895;47.438;18.978;2022-12-18T03:12:59;40.20;;;20.77;;
59109;SDS011;44895;47.438;18.978;2022-12-18T03:16:27;37.30;;;18.15;;
59109;SDS011;44895;47.438;18.978;2022-12-18T03:19:33;36.58;;;19.45;;
59109;SDS011;44895;47.438;18.978;2022-12-18T03:22:40;37.00;;;19.25;;
59109;SDS011;44895;47.438;18.978;2022-12-18T03:29:06;36.80;;;17.58;;
59109;SDS011;44895;47.438;18.978;2022-12-18T03:32:15;33.03;;;17.85;;
59109;SDS011;44895;47.438;18.978;2022-12-18T03:35:31;40.97;;;18.83;;
59109;SDS011;44895;47.438;18.978;2022-12-18T03:38:39;38.90;;;18.13;;
59109;SDS011;44895;47.438;18.978;2022-12-18T03:41:53;41.15;;;18.77;;
59109;SDS011;44895;47.438;18.978;2022-12-18T03:45:32;41.20;;;20.95;;
59109;SDS011;44895;47.438;18.978;2022-12-18T03:48:42;38.15;;;17.48;;
59109;SDS011;44895;47.438;18.978;2022-12-18T03:51:57;38.97;;;20.70;;
59109;SDS011;44895;47.438;18.978;2022-12-18T03:55:09;40.53;;;19.38;;
59109;SDS011;44895;47.438;18.978;2022-12-18T03:58:17;37.85;;;19.83;;
59109;SDS011;44895;47.438;18.978;2022-12-18T04:01:34;38.53;;;19.48;;
59109;SDS011;44895;47.438;18.978;2022-12-18T04:04:42;36.78;;;18.60;;
59109;SDS011;44895;47.438;18.978;2022-12-18T04:07:48;35.88;;;18.45;;
59109;SDS011;44895;47.438;18.978;2022-12-18T04:10:55;37.60;;;19.17;;
59109;SDS011;44895;47.438;18.978;2022-12-18T04:13:59;35.83;;;20.58;;
59109;SDS011;44895;47.438;18.978;2022-12-18T04:17:04;37.97;;;16.85;;
59109;SDS011;44895;47.438;18.978;2022-12-18T04:20:10;34.38;;;18.60;;
59109;SDS011;44895;47.438;18.978;2022-12-18T04:23:19;42.25;;;20.08;;
59109;SDS011;44895;47.438;18.978;2022-12-18T04:26:23;33.97;;;18.33;;
59109;SDS011;44895;47.438;18.978;2022-12-18T04:29:48;37.90;;;21.45;;
59109;SDS011;44895;47.438;18.978;2022-12-18T04:32:55;40.88;;;20.88;;
59109;SDS011;44895;47.438;18.978;2022-12-18T04:35:59;40.95;;;20.38;;
59109;SDS011;44895;47.438;18.978;2022-12-18T04:39:03;37.55;;;20.33;;
59109;SDS011;44895;47.438;18.978;2022-12-18T04:42:08;39.35;;;21.60;;
59109;SDS011;44895;47.438;18.978;2022-12-18T04:45:12;39.42;;;20.27;;
59109;SDS011;44895;47.438;18.978;2022-12-18T04:48:16;31.48;;;15.57;;
59109;SDS011;44895;47.438;18.978;2022-12-18T04:51:20;39.38;;;19.58;;
59109;SDS011;44895;47.438;18.978;2022-12-18T04:54:24;39.22;;;19.05;;
59109;SDS011;44895;47.438;18.978;2022-12-18T04:57:29;51.85;;;20.45;;
59109;SDS011;44895;47.438;18.978;2022-12-18T05:00:33;35.13;;;20.60;;
59109;SDS011;44895;47.438;18.978;2022-12-18T05:03:37;36.08;;;21.80;;
59109;SDS011;44895;47.438;18.978;2022-12-18T05:06:41;37.65;;;18.33;;
59109;SDS011;44895;47.438;18.978;2022-12-18T05:09:45;40.00;;;19.42;;
59109;SDS011;44895;47.438;18.978;2022-12-18T05:12:49;33.10;;;18.50;;
59109;SDS011;44895;47.438;18.978;2022-12-18T05:16:02;43.25;;;22.33;;
59109;SDS011;44895;47.438;18.978;2022-12-18T05:19:06;34.95;;;18.52;;
59109;SDS011;44895;47.438;18.978;2022-12-18T05:22:10;34.58;;;19.77;;
59109;SDS011;44895;47.438;18.978;2022-12-18T05:25:15;35.88;;;19.30;;
59109;SDS011;44895;47.438;18.978;2022-12-18T05:28:19;30.80;;;17.30;;
59109;SDS011;44895;47.438;18.978;2022-12-18T05:31:23;38.17;;;20.10;;
59109;SDS011;44895;47.438;18.978;2022-12-18T05:34:29;36.33;;;21.35;;
59109;SDS011;44895;47.438;18.978;2022-12-18T05:37:33;36.63;;;18.10;;
59109;SDS011;44895;47.438;18.978;2022-12-18T05:40:40;35.92;;;18.48;;
59109;SDS011;44895;47.438;18.978;2022-12-18T05:43:47;38.90;;;22.60;;
59109;SDS011;44895;47.438;18.978;2022-12-18T05:46:51;34.13;;;18.27;;
59109;SDS011;44895;47.438;18.978;2022-12-18T05:49:54;38.05;;;20.98;;
59109;SDS011;44895;47.438;18.978;2022-12-18T05:52:59;33.78;;;19.10;;
59109;SDS011;44895;47.438;18.978;2022-12-18T05:56:04;38.28;;;18.75;;
59109;SDS011;44895;47.438;18.978;2022-12-18T05:59:10;31.67;;;17.15;;
59109;SDS011;44895;47.438;18.978;2022-12-18T06:02:15;37.80;;;20.73;;
59109;SDS011;44895;47.438;18.978;2022-12-18T06:05:18;33.88;;;19.88;;
59109;SDS011;44895;47.438;18.978;2022-12-18T06:08:22;35.40;;;18.10;;
59109;SDS011;44895;47.438;18.978;2022-12-18T06:11:26;34.22;;;15.98;;
59109;SDS011;44895;47.438;18.978;2022-12-18T06:14:31;41.75;;;20.25;;
59109;SDS011;44895;47.438;18.978;2022-12-18T06:17:34;34.47;;;18.02;;
59109;SDS011;44895;47.438;18.978;2022-12-18T06:20:39;38.08;;;17.58;;
59109;SDS011;44895;47.438;18.978;2022-12-18T06:23:45;34.63;;;17.52;;
59109;SDS011;44895;47.438;18.978;2022-12-18T06:26:49;32.47;;;16.92;;
59109;SDS011;44895;47.438;18.978;2022-12-18T06:29:53;35.67;;;19.27;;
59109;SDS011;44895;47.438;18.978;2022-12-18T06:32:57;37.72;;;20.30;;
59109;SDS011;44895;47.438;18.978;2022-12-18T06:36:02;37.65;;;19.13;;
59109;SDS011;44895;47.438;18.978;2022-12-18T06:39:07;38.22;;;19.75;;
59109;SDS011;44895;47.438;18.978;2022-12-18T06:42:11;32.47;;;17.73;;
59109;SDS011;44895;47.438;18.978;2022-12-18T06:45:15;30.67;;;18.38;;
59109;SDS011;44895;47.438;18.978;2022-12-18T06:48:19;35.92;;;20.48;;
59109;SDS011;44895;47.438;18.978;2022-12-18T06:51:23;34.63;;;19.15;;
59109;SDS011;44895;47.438;18.978;2022-12-18T06:54:28;34.40;;;17.27;;
59109;SDS011;44895;47.438;18.978;2022-12-18T06:57:33;35.63;;;17.88;;
59109;SDS011;44895;47.438;18.978;2022-12-18T07:00:37;34.92;;;20.58;;
59109;SDS011;44895;47.438;18.978;2022-12-18T07:03:41;34.63;;;19.13;;
59109;SDS011;44895;47.438;18.978;2022-12-18T07:06:46;37.22;;;20.45;;
59109;SDS011;44895;47.438;18.978;2022-12-18T07:09:50;41.92;;;20.60;;
59109;SDS011;44895;47.438;18.978;2022-12-18T07:12:54;37.42;;;18.55;;
59109;SDS011;44895;47.438;18.978;2022-12-18T07:16:05;48.17;;;19.45;;
59109;SDS011;44895;47.438;18.978;2022-12-18T07:19:09;42.33;;;18.40;;
59109;SDS011;44895;47.438;18.978;2022-12-18T07:22:14;39.47;;;19.52;;
59109;SDS011;44895;47.438;18.978;2022-12-18T07:25:18;33.53;;;20.42;;
59109;SDS011;44895;47.438;18.978;2022-12-18T07:28:22;33.92;;;21.55;;
59109;SDS011;44895;47.438;18.978;2022-12-18T07:31:26;37.40;;;19.42;;
59109;SDS011;44895;47.438;18.978;2022-12-18T07:34:30;36.90;;;22.45;;
59109;SDS011;44895;47.438;18.978;2022-12-18T07:37:34;40.90;;;21.58;;
59109;SDS011;44895;47.438;18.978;2022-12-18T07:40:38;34.80;;;19.48;;
59109;SDS011;44895;47.438;18.978;2022-12-18T07:43:42;34.80;;;23.45;;
59109;SDS011;44895;47.438;18.978;2022-12-18T07:46:47;37.45;;;20.88;;
59109;SDS011;44895;47.438;18.978;2022-12-18T07:49:51;40.22;;;22.52;;
59109;SDS011;44895;47.438;18.978;2022-12-18T07:52:55;43.67;;;22.35;;
59109;SDS011;44895;47.438;18.978;2022-12-18T07:56:00;40.15;;;22.77;;
59109;SDS011;44895;47.438;18.978;2022-12-18T07:59:12;44.83;;;26.23;;
59109;SDS011;44895;47.438;18.978;2022-12-18T08:02:16;44.40;;;24.45;;
59109;SDS011;44895;47.438;18.978;2022-12-18T08:05:20;43.05;;;24.67;;
59109;SDS011;44895;47.438;18.978;2022-12-18T08:08:24;39.20;;;20.73;;
59109;SDS011;44895;47.438;18.978;2022-12-18T08:11:28;39.40;;;25.15;;
59109;SDS011;44895;47.438;18.978;2022-12-18T08:14:32;39.17;;;22.52;;
59109;SDS011;44895;47.438;18.978;2022-12-18T08:17:37;40.85;;;22.10;;
59109;SDS011;44895;47.438;18.978;2022-12-18T08:20:40;38.72;;;20.88;;
59109;SDS011;44895;47.438;18.978;2022-12-18T08:23:44;37.92;;;21.27;;
59109;SDS011;44895;47.438;18.978;2022-12-18T08:26:48;35.42;;;20.88;;
59109;SDS011;44895;47.438;18.978;2022-12-18T08:29:52;35.65;;;21.30;;
59109;SDS011;44895;47.438;18.978;2022-12-18T08:32:56;33.95;;;21.58;;
59109;SDS011;44895;47.438;18.978;2022-12-18T08:36:01;45.83;;;23.95;;
59109;SDS011;44895;47.438;18.978;2022-12-18T08:39:07;38.28;;;25.02;;
59109;SDS011;44895;47.438;18.978;2022-12-18T08:42:11;38.60;;;21.40;;
59109;SDS011;44895;47.438;18.978;2022-12-18T08:45:33;43.50;;;25.48;;
59109;SDS011;44895;47.438;18.978;2022-12-18T08:48:37;37.40;;;22.05;;
59109;SDS011;44895;47.438;18.978;2022-12-18T08:51:41;45.95;;;22.33;;
59109;SDS011;44895;47.438;18.978;2022-12-18T08:54:45;40.78;;;22.02;;
59109;SDS011;44895;47.438;18.978;2022-12-18T08:57:49;41.45;;;27.58;;
59109;SDS011;44895;47.438;18.978;2022-12-18T09:00:54;37.50;;;22.20;;
59109;SDS011;44895;47.438;18.978;2022-12-18T09:03:57;38.58;;;21.42;;
59109;SDS011;44895;47.438;18.978;2022-12-18T09:07:01;38.13;;;20.23;;
59109;SDS011;44895;47.438;18.978;2022-12-18T09:10:05;33.97;;;20.05;;
59109;SDS011;44895;47.438;18.978;2022-12-18T09:13:10;40.85;;;24.83;;
59109;SDS011;44895;47.438;18.978;2022-12-18T09:16:15;39.08;;;22.35;;
59109;SDS011;44895;47.438;18.978;2022-12-18T09:19:20;35.15;;;20.40;;
59109;SDS011;44895;47.438;18.978;2022-12-18T09:22:24;39.97;;;21.95;;
59109;SDS011;44895;47.438;18.978;2022-12-18T09:25:28;39.08;;;24.35;;
59109;SDS011;44895;47.438;18.978;2022-12-18T09:28:37;43.85;;;25.42;;
59109;SDS011;44895;47.438;18.978;2022-12-18T09:31:41;39.72;;;23.05;;
59109;SDS011;44895;47.438;18.978;2022-12-18T09:34:45;41.47;;;25.27;;
59109;SDS011;44895;47.438;18.978;2022-12-18T09:37:48;39.30;;;22.90;;
59109;SDS011;44895;47.438;18.978;2022-12-18T09:40:53;46.17;;;23.25;;
59109;SDS011;44895;47.438;18.978;2022-12-18T09:44:03;36.92;;;21.90;;
59109;SDS011;44895;47.438;18.978;2022-12-18T09:47:16;34.50;;;17.75;;
59109;SDS011;44895;47.438;18.978;2022-12-18T09:53:37;33.97;;;19.27;;
59109;SDS011;44895;47.438;18.978;2022-12-18T09:56:44;34.10;;;18.08;;
59109;SDS011;44895;47.438;18.978;2022-12-18T09:59:50;35.70;;;19.35;;
59109;SDS011;44895;47.438;18.978;2022-12-18T10:03:00;30.88;;;18.90;;
59109;SDS011;44895;47.438;18.978;2022-12-18T10:09:33;32.10;;;18.02;;
59109;SDS011;44895;47.438;18.978;2022-12-18T10:12:48;38.08;;;20.20;;
59109;SDS011;44895;47.438;18.978;2022-12-18T10:19:36;29.80;;;17.50;;
59109;SDS011;44895;47.438;18.978;2022-12-18T10:26:03;35.00;;;20.33;;
59109;SDS011;44895;47.438;18.978;2022-12-18T10:29:13;36.65;;;22.05;;
59109;SDS011;44895;47.438;18.978;2022-12-18T10:32:20;35.40;;;20.55;;
59109;SDS011;44895;47.438;18.978;2022-12-18T10:35:32;33.40;;;19.90;;
59109;SDS011;44895;47.438;18.978;2022-12-18T10:38:36;33.70;;;22.30;;
59109;SDS011;44895;47.438;18.978;2022-12-18T10:41:40;34.70;;;18.75;;
59109;SDS011;44895;47.438;18.978;2022-12-18T10:44:44;34.15;;;18.45;;
59109;SDS011;44895;47.438;18.978;2022-12-18T10:47:49;34.55;;;19.65;;
59109;SDS011;44895;47.438;18.978;2022-12-18T10:50:53;35.50;;;20.35;;
59109;SDS011;44895;47.438;18.978;2022-12-18T11:00:30;36.92;;;20.15;;
59109;SDS011;44895;47.438;18.978;2022-12-18T11:03:35;37.38;;;20.33;;
59109;SDS011;44895;47.438;18.978;2022-12-18T11:06:59;35.00;;;19.40;;
59109;SDS011;44895;47.438;18.978;2022-12-18T11:10:03;37.15;;;21.15;;
59109;SDS011;44895;47.438;18.978;2022-12-18T11:13:09;39.05;;;21.98;;
59109;SDS011;44895;47.438;18.978;2022-12-18T11:16:19;34.67;;;20.15;;
59109;SDS011;44895;47.438;18.978;2022-12-18T11:22:39;38.47;;;21.50;;
59109;SDS011;44895;47.438;18.978;2022-12-18T11:25:50;36.72;;;21.35;;
59109;SDS011;44895;47.438;18.978;2022-12-18T11:29:10;32.78;;;16.95;;
59109;SDS011;44895;47.438;18.978;2022-12-18T11:38:46;31.25;;;17.23;;
59109;SDS011;44895;47.438;18.978;2022-12-18T11:41:53;29.90;;;15.70;;
59109;SDS011;44895;47.438;18.978;2022-12-18T11:48:18;28.15;;;14.68;;
59109;SDS011;44895;47.438;18.978;2022-12-18T11:51:27;31.48;;;18.15;;
59109;SDS011;44895;47.438;18.978;2022-12-18T11:54:38;28.98;;;17.08;;
59109;SDS011;44895;47.438;18.978;2022-12-18T11:58:17;25.30;;;15.20;;
59109;SDS011;44895;47.438;18.978;2022-12-18T12:01:50;26.48;;;14.45;;
59109;SDS011;44895;47.438;18.978;2022-12-18T12:15:05;25.75;;;13.60;;
59109;SDS011;44895;47.438;18.978;2022-12-18T12:21:44;25.20;;;13.40;;
59109;SDS011;44895;47.438;18.978;2022-12-18T12:25:02;32.42;;;17.80;;
59109;SDS011;44895;47.438;18.978;2022-12-18T12:31:47;26.10;;;16.05;;
59109;SDS011;44895;47.438;18.978;2022-12-18T12:35:09;24.65;;;14.90;;
59109;SDS011;44895;47.438;18.978;2022-12-18T12:38:28;26.08;;;12.57;;
59109;SDS011;44895;47.438;18.978;2022-12-18T12:41:47;25.55;;;13.77;;
59109;SDS011;44895;47.438;18.978;2022-12-18T12:45:14;26.05;;;14.65;;
59109;SDS011;44895;47.438;18.978;2022-12-18T12:51:36;33.25;;;17.77;;
59109;SDS011;44895;47.438;18.978;2022-12-18T12:54:43;33.58;;;19.75;;
59109;SDS011;44895;47.438;18.978;2022-12-18T12:57:54;36.53;;;21.42;;
59109;SDS011;44895;47.438;18.978;2022-12-18T13:08:07;33.92;;;17.02;;
59109;SDS011;44895;47.438;18.978;2022-12-18T13:11:28;27.77;;;17.33;;
59109;SDS011;44895;47.438;18.978;2022-12-18T13:15:12;31.13;;;13.88;;
59109;SDS011;44895;47.438;18.978;2022-12-18T13:18:24;29.52;;;16.65;;
59109;SDS011;44895;47.438;18.978;2022-12-18T13:21:30;29.58;;;14.63;;
59109;SDS011;44895;47.438;18.978;2022-12-18T13:24:36;27.38;;;15.75;;
59109;SDS011;44895;47.438;18.978;2022-12-18T13:30:52;30.33;;;16.88;;
59109;SDS011;44895;47.438;18.978;2022-12-18T13:43:42;26.83;;;15.23;;
59109;SDS011;44895;47.438;18.978;2022-12-18T13:46:48;30.85;;;16.20;;
59109;SDS011;44895;47.438;18.978;2022-12-18T13:49:53;35.38;;;16.85;;
59109;SDS011;44895;47.438;18.978;2022-12-18T13:52:58;29.88;;;15.82;;
59109;SDS011;44895;47.438;18.978;2022-12-18T13:56:03;32.60;;;15.02;;
59109;SDS011;44895;47.438;18.978;2022-12-18T14:02:13;40.38;;;23.30;;
59109;SDS011;44895;47.438;18.978;2022-12-18T14:05:34;36.55;;;21.15;;
59109;SDS011;44895;47.438;18.978;2022-12-18T14:08:39;40.63;;;24.38;;
59109;SDS011;44895;47.438;18.978;2022-12-18T14:11:47;45.50;;;22.43;;
59109;SDS011;44895;47.438;18.978;2022-12-18T14:14:52;42.67;;;24.27;;
59109;SDS011;44895;47.438;18.978;2022-12-18T14:17:57;48.10;;;28.13;;
59109;SDS011;44895;47.438;18.978;2022-12-18T14:24:14;44.88;;;21.30;;
59109;SDS011;44895;47.438;18.978;2022-12-18T14:27:24;41.58;;;25.42;;
59109;SDS011;44895;47.438;18.978;2022-12-18T14:30:30;35.55;;;22.13;;
59109;SDS011;44895;47.438;18.978;2022-12-18T14:33:45;45.78;;;24.67;;
59109;SDS011;44895;47.438;18.978;2022-12-18T14:36:52;32.13;;;20.05;;
59109;SDS011;44895;47.438;18.978;2022-12-18T14:39:58;31.15;;;18.75;;
59109;SDS011;44895;47.438;18.978;2022-12-18T14:43:03;36.90;;;21.23;;
59109;SDS011;44895;47.438;18.978;2022-12-18T14:49:32;37.65;;;21.50;;
59109;SDS011;44895;47.438;18.978;2022-12-18T14:52:37;40.75;;;22.48;;
59109;SDS011;44895;47.438;18.978;2022-12-18T14:55:44;40.38;;;21.55;;
59109;SDS011;44895;47.438;18.978;2022-12-18T14:58:54;37.55;;;20.13;;
59109;SDS011;44895;47.438;18.978;2022-12-18T15:08:36;37.25;;;20.30;;
59109;SDS011;44895;47.438;18.978;2022-12-18T15:14:45;39.65;;;20.27;;
59109;SDS011;44895;47.438;18.978;2022-12-18T15:17:55;39.58;;;24.40;;
59109;SDS011;44895;47.438;18.978;2022-12-18T15:21:08;50.10;;;22.75;;
59109;SDS011;44895;47.438;18.978;2022-12-18T15:24:18;36.33;;;21.40;;
59109;SDS011;44895;47.438;18.978;2022-12-18T15:27:35;39.10;;;20.08;;
59109;SDS011;44895;47.438;18.978;2022-12-18T15:30:57;28.45;;;18.83;;
59109;SDS011;44895;47.438;18.978;2022-12-18T15:34:10;40.25;;;22.92;;
59109;SDS011;44895;47.438;18.978;2022-12-18T15:37:18;39.55;;;21.77;;
59109;SDS011;44895;47.438;18.978;2022-12-18T15:40:23;35.10;;;19.10;;
59109;SDS011;44895;47.438;18.978;2022-12-18T15:43:28;32.85;;;19.17;;
59109;SDS011;44895;47.438;18.978;2022-12-18T15:46:39;47.75;;;25.40;;
59109;SDS011;44895;47.438;18.978;2022-12-18T15:49:43;36.08;;;21.27;;
59109;SDS011;44895;47.438;18.978;2022-12-18T15:52:49;38.38;;;20.42;;
59109;SDS011;44895;47.438;18.978;2022-12-18T15:55:58;42.22;;;20.83;;
59109;SDS011;44895;47.438;18.978;2022-12-18T15:59:22;44.75;;;23.27;;
59109;SDS011;44895;47.438;18.978;2022-12-18T16:02:27;36.17;;;19.27;;
59109;SDS011;44895;47.438;18.978;2022-12-18T16:05:32;47.60;;;26.35;;
59109;SDS011;44895;47.438;18.978;2022-12-18T16:08:37;38.95;;;17.23;;
59109;SDS011;44895;47.438;18.978;2022-12-18T16:11:42;38.03;;;20.88;;
59109;SDS011;44895;47.438;18.978;2022-12-18T16:14:49;34.42;;;17.35;;
59109;SDS011;44895;47.438;18.978;2022-12-18T16:17:54;33.35;;;18.58;;
59109;SDS011;44895;47.438;18.978;2022-12-18T16:20:59;37.83;;;18.90;;
59109;SDS011;44895;47.438;18.978;2022-12-18T16:24:03;38.05;;;20.42;;
59109;SDS011;44895;47.438;18.978;2022-12-18T16:27:08;33.00;;;17.42;;
59109;SDS011;44895;47.438;18.978;2022-12-18T16:30:14;40.70;;;21.02;;
59109;SDS011;44895;47.438;18.978;2022-12-18T16:33:23;36.17;;;18.35;;
59109;SDS011;44895;47.438;18.978;2022-12-18T16:36:27;38.17;;;18.08;;
59109;SDS011;44895;47.438;18.978;2022-12-18T16:39:35;38.30;;;17.85;;
59109;SDS011;44895;47.438;18.978;2022-12-18T16:42:41;32.95;;;16.45;;
59109;SDS011;44895;47.438;18.978;2022-12-18T16:45:47;28.58;;;17.13;;
59109;SDS011;44895;47.438;18.978;2022-12-18T16:48:52;35.10;;;15.18;;
59109;SDS011;44895;47.438;18.978;2022-12-18T16:51:58;39.25;;;20.10;;
59109;SDS011;44895;47.438;18.978;2022-12-18T16:55:04;37.88;;;18.42;;
59109;SDS011;44895;47.438;18.978;2022-12-18T16:58:09;34.67;;;17.50;;
59109;SDS011;44895;47.438;18.978;2022-12-18T17:01:14;33.90;;;19.55;;
59109;SDS011;44895;47.438;18.978;2022-12-18T17:04:18;34.17;;;16.67;;
59109;SDS011;44895;47.438;18.978;2022-12-18T17:07:24;37.50;;;17.20;;
59109;SDS011;44895;47.438;18.978;2022-12-18T17:10:31;38.90;;;20.45;;
59109;SDS011;44895;47.438;18.978;2022-12-18T17:13:38;38.83;;;19.42;;
59109;SDS011;44895;47.438;18.978;2022-12-18T17:16:42;39.67;;;17.38;;
59109;SDS011;44895;47.438;18.978;2022-12-18T17:19:47;39.33;;;22.67;;
59109;SDS011;44895;47.438;18.978;2022-12-18T17:22:52;38.22;;;22.33;;
59109;SDS011;44895;47.438;18.978;2022-12-18T17:26:10;47.92;;;22.40;;
59109;SDS011;44895;47.438;18.978;2022-12-18T17:29:17;45.90;;;23.20;;
59109;SDS011;44895;47.438;18.978;2022-12-18T17:32:23;48.22;;;22.83;;
59109;SDS011;44895;47.438;18.978;2022-12-18T17:35:28;40.88;;;22.70;;
59109;SDS011;44895;47.438;18.978;2022-12-18T17:38:33;50.38;;;25.42;;
59109;SDS011;44895;47.438;18.978;2022-12-18T17:41:38;53.42;;;26.55;;
59109;SDS011;44895;47.438;18.978;2022-12-18T17:44:43;47.90;;;23.65;;
59109;SDS011;44895;47.438;18.978;2022-12-18T17:47:48;44.60;;;26.00;;
59109;SDS011;44895;47.438;18.978;2022-12-18T17:50:52;47.28;;;26.15;;
59109;SDS011;44895;47.438;18.978;2022-12-18T17:53:57;52.30;;;27.60;;
59109;SDS011;44895;47.438;18.978;2022-12-18T17:57:01;49.03;;;30.50;;
59109;SDS011;44895;47.438;18.978;2022-12-18T18:00:07;55.67;;;30.83;;
59109;SDS011;44895;47.438;18.978;2022-12-18T18:03:12;54.55;;;28.52;;
59109;SDS011;44895;47.438;18.978;2022-12-18T18:06:16;56.45;;;30.38;;
59109;SDS011;44895;47.438;18.978;2022-12-18T18:09:21;48.17;;;30.50;;
59109;SDS011;44895;47.438;18.978;2022-12-18T18:12:26;59.22;;;29.77;;
59109;SDS011;44895;47.438;18.978;2022-12-18T18:15:56;61.22;;;34.63;;
59109;SDS011;44895;47.438;18.978;2022-12-18T18:19:03;56.47;;;32.25;;
59109;SDS011;44895;47.438;18.978;2022-12-18T18:22:09;56.00;;;32.25;;
59109;SDS011;44895;47.438;18.978;2022-12-18T18:25:14;58.38;;;31.95;;
59109;SDS011;44895;47.438;18.978;2022-12-18T18:28:18;62.60;;;33.38;;
59109;SDS011;44895;47.438;18.978;2022-12-18T18:31:22;62.70;;;35.72;;
59109;SDS011;44895;47.438;18.978;2022-12-18T18:34:30;48.55;;;30.80;;
59109;SDS011;44895;47.438;18.978;2022-12-18T18:37:36;61.67;;;35.80;;
59109;SDS011;44895;47.438;18.978;2022-12-18T18:40:40;58.88;;;33.17;;
59109;SDS011;44895;47.438;18.978;2022-12-18T18:43:45;61.63;;;33.63;;
59109;SDS011;44895;47.438;18.978;2022-12-18T18:46:51;56.10;;;34.78;;
59109;SDS011;44895;47.438;18.978;2022-12-18T18:49:59;44.85;;;29.88;;
59109;SDS011;44895;47.438;18.978;2022-12-18T18:53:04;72.57;;;36.53;;
59109;SDS011;44895;47.438;18.978;2022-12-18T18:56:09;64.72;;;37.70;;
59109;SDS011;44895;47.438;18.978;2022-12-18T18:59:16;72.50;;;37.10;;
59109;SDS011;44895;47.438;18.978;2022-12-18T19:02:20;73.07;;;37.88;;
59109;SDS011;44895;47.438;18.978;2022-12-18T19:05:25;58.38;;;34.22;;
59109;SDS011;44895;47.438;18.978;2022-12-18T19:08:32;53.30;;;31.15;;
59109;SDS011;44895;47.438;18.978;2022-12-18T19:11:38;74.60;;;38.65;;
59109;SDS011;44895;47.438;18.978;2022-12-18T19:15:01;68.07;;;37.00;;
59109;SDS011;44895;47.438;18.978;2022-12-18T19:18:06;65.97;;;40.65;;
59109;SDS011;44895;47.438;18.978;2022-12-18T19:21:11;74.70;;;41.08;;
59109;SDS011;44895;47.438;18.978;2022-12-18T19:24:17;67.40;;;40.95;;
59109;SDS011;44895;47.438;18.978;2022-12-18T19:27:21;60.88;;;35.05;;
59109;SDS011;44895;47.438;18.978;2022-12-18T19:30:26;63.15;;;34.60;;
59109;SDS011;44895;47.438;18.978;2022-12-18T19:33:32;71.07;;;39.42;;
59109;SDS011;44895;47.438;18.978;2022-12-18T19:36:38;61.70;;;38.83;;
59109;SDS011;44895;47.438;18.978;2022-12-18T19:39:43;66.78;;;41.05;;
59109;SDS011;44895;47.438;18.978;2022-12-18T19:42:48;69.07;;;42.30;;
59109;SDS011;44895;47.438;18.978;2022-12-18T19:45:53;67.82;;;36.85;;
59109;SDS011;44895;47.438;18.978;2022-12-18T19:48:59;58.08;;;37.47;;
59109;SDS011;44895;47.438;18.978;2022-12-18T19:52:03;76.85;;;44.20;;
59109;SDS011;44895;47.438;18.978;2022-12-18T19:55:08;66.00;;;35.88;;
59109;SDS011;44895;47.438;18.978;2022-12-18T19:58:13;72.15;;;39.15;;